To NAV CANADA Home Page Login to a new session Search on AWWS site Feedback and Comments Disclaimer Vers la page française équivalente Tips FAQ What's new on the site To the Forecasts and Observations / NOTAM section To "File a Flight Plan" website Publications and other links Update of the User's profile FIC Telephone Numbers My Weather Data Folder Route Weather Data Regional Weather Data Local Weather Data To the Forecasts and Observations / NOTAM section
Request Generated 05/25/2016 at 08:59:19 UTC . Weather information available at that time is displayed.

METAR/TAF

TORONTO/BUTTONVILLE MUNICIPAL/ON    

METAR CYKZ 250800Z VRB02KT 12SM FEW160 FEW210 18/07 A2996 RMK AC1CI1
SLP146 DENSITY ALT 1100FT=
METAR CYKZ 250700Z 00000KT 12SM FEW160 FEW210 17/07 A2997 RMK AC1CI1
SLP149 DENSITY ALT 900FT=
METAR CYKZ 250600Z 27002KT 12SM SKC 18/06 A2997 RMK SLP148 DENSITY
ALT 1100FT=

TAF CYKZ 250541Z 2506/2518 25003KT P6SM FEW250
FM250900 29005KT P6SM BKN120
FM251600 27010G20KT P6SM FEW060
RMK NXT FCST BY 251200Z=
Your time UTC time
Weather data provided by Environment Canada and NAV CANADA